CheckWX is a tool to help pilots better visualize weather data.  It is not intended as a substitute for an official pre-flight weather briefing.

11:35:39 UTC

KEDN METAR
Enterprise Municipal Airport
Enterprise, Alabama, USA
Current

21 mins ago

KEDN 041115Z AUTO 08003KT 10SM OVC004 22/22 A2992 RMK AO2 LTG DSNT N T02220222
Observed
Jul-4 @ 11:15 UTC
Wind
  • 080° at 3 KTS
Visibility
10 SM
Flight Rules
LIFR
Cloud Levels
  • Overcast at 400' AGL
Temperature
22°C / 72°F
Dewpoint
22°C / 72°F
Humidity
100%
Altimeter
29.92" Hg
Pressure
1013.22 hPa
Previous

41 mins ago

KEDN 041055Z AUTO 00000KT 10SM OVC004 22/22 A2992 RMK AO2 LTG DSNT N AND NE T02220222
Observed
Jul-4 @ 10:55 UTC
Visibility
10 SM
Flight Rules
LIFR
Cloud Levels
  • Overcast at 400' AGL
Temperature
22°C / 72°F
Dewpoint
22°C / 72°F
Humidity
100%
Altimeter
29.92" Hg
Pressure
1013.22 hPa
Previous

1 hour ago

KEDN 041035Z AUTO 00000KT 10SM BKN004 22/22 A2991 RMK AO2 T02220222
Observed
Jul-4 @ 10:35 UTC
Visibility
10 SM
Flight Rules
LIFR
Cloud Levels
  • Broken at 400' AGL
Temperature
22°C / 72°F
Dewpoint
22°C / 72°F
Humidity
100%
Altimeter
29.91" Hg
Pressure
1012.92 hPa